Time;durP1;ratioP1;P1;durP2;ratioP2;P2;SDS_P1;SDS_P2;PMS_P1;PMS_P2;Temp;Humidity;BMP_temperature;BMP_pressure;BME280_temperature;BME280_humidity;BME280_pressure;Samples;Min_cycle;Max_cycle;Signal;HPM_P1;HPM_P2
2023/10/22 00:00:09;;;;;;;0.47;0.47;;;10.30;1.00;;;;;;5028905;28;20048;-80
2023/10/22 00:02:39;;;;;;;0.20;0.20;;;10.20;1.00;;;;;;5026651;28;20975;-79
2023/10/22 00:05:06;;;;;;;1.02;0.40;;;10.20;1.00;;;;;;5006553;28;20049;-81
2023/10/22 00:07:33;;;;;;;0.25;0.25;;;10.10;1.00;;;;;;5031202;28;20045;-82
2023/10/22 00:10:00;;;;;;;0.52;0.52;;;10.00;1.00;;;;;;5035497;28;20044;-80
2023/10/22 00:12:27;;;;;;;0.10;0.10;;;10.00;1.00;;;;;;5029558;28;20055;-81
2023/10/22 00:14:54;;;;;;;0.20;0.20;;;10.00;1.00;;;;;;5033967;28;20397;-81
2023/10/22 00:17:20;;;;;;;0.00;0.00;;;10.00;1.00;;;;;;5036102;28;20050;-81
2023/10/22 00:19:47;;;;;;;0.10;0.10;;;10.00;1.00;;;;;;5034984;28;20049;-80
2023/10/22 00:22:14;;;;;;;0.10;0.10;;;10.00;1.00;;;;;;5020122;28;20046;-81
2023/10/22 00:24:41;;;;;;;0.10;0.10;;;10.00;1.00;;;;;;5026176;28;20030;-81
2023/10/22 00:27:07;;;;;;;0.10;0.10;;;10.00;1.00;;;;;;5012603;28;20049;-81
2023/10/22 00:29:33;;;;;;;0.20;0.20;;;10.00;1.00;;;;;;5025276;28;20034;-80
2023/10/22 00:32:00;;;;;;;1.42;0.65;;;10.00;1.00;;;;;;5041878;28;20485;-80
2023/10/22 00:34:26;;;;;;;0.60;0.60;;;10.10;1.00;;;;;;5036699;28;20040;-80
2023/10/22 00:36:53;;;;;;;0.10;0.10;;;10.10;1.00;;;;;;5029802;28;20033;-84
2023/10/22 00:39:19;;;;;;;0.10;0.10;;;10.20;1.00;;;;;;5031775;28;20064;-80
2023/10/22 00:41:46;;;;;;;0.17;0.17;;;10.30;1.00;;;;;;5030057;28;20401;-80
2023/10/22 00:44:12;;;;;;;0.10;0.10;;;10.20;1.00;;;;;;5043146;28;20662;-80
2023/10/22 00:46:39;;;;;;;1.30;1.00;;;10.20;1.00;;;;;;5042016;28;20033;-81
2023/10/22 00:49:06;;;;;;;0.10;0.10;;;10.20;1.00;;;;;;5018220;28;20042;-80
2023/10/22 00:51:33;;;;;;;0.55;0.40;;;10.20;1.00;;;;;;5014409;28;20045;-80
2023/10/22 00:53:59;;;;;;;0.75;0.75;;;10.20;1.00;;;;;;5054913;28;20584;-79
2023/10/22 00:56:26;;;;;;;0.28;0.28;;;10.20;99.90;;;;;;5043766;28;20470;-81
2023/10/22 00:58:53;;;;;;;2.55;0.38;;;10.20;99.90;;;;;;5055812;28;20043;-82
2023/10/22 01:01:21;;;;;;;0.10;0.10;;;10.10;1.00;;;;;;5060753;28;20048;-81
2023/10/22 01:03:47;;;;;;;0.43;0.28;;;10.10;99.90;;;;;;5036388;28;20049;-80
2023/10/22 01:06:14;;;;;;;0.30;0.17;;;10.10;99.90;;;;;;5048853;28;20041;-80
2023/10/22 01:08:41;;;;;;;0.20;0.20;;;10.00;99.90;;;;;;5019772;28;20041;-80
2023/10/22 01:11:11;;;;;;;0.38;0.35;;;10.00;99.90;;;;;;5037504;28;20517;-79
2023/10/22 01:13:39;;;;;;;0.10;0.10;;;10.00;99.90;;;;;;5018183;28;20048;-80
2023/10/22 01:16:09;;;;;;;0.20;0.20;;;10.00;99.90;;;;;;5049579;28;20113;-80
2023/10/22 01:18:36;;;;;;;0.10;0.10;;;10.10;99.90;;;;;;5038104;28;20040;-80
2023/10/22 01:21:06;;;;;;;0.38;0.30;;;10.00;1.00;;;;;;5039865;28;20645;-80
2023/10/22 01:23:38;;;;;;;0.30;0.30;;;9.80;1.00;;;;;;5046222;28;20040;-80
2023/10/22 01:26:06;;;;;;;0.10;0.10;;;9.80;1.00;;;;;;5059933;28;20394;-81
2023/10/22 01:28:34;;;;;;;0.10;0.10;;;9.70;1.00;;;;;;5022608;28;20117;-81
2023/10/22 01:31:00;;;;;;;0.20;0.20;;;9.70;1.00;;;;;;5033097;28;20045;-80
2023/10/22 01:33:26;;;;;;;0.60;0.35;;;9.70;1.00;;;;;;5045217;28;20036;-80
2023/10/22 01:35:53;;;;;;;0.10;0.10;;;9.70;1.00;;;;;;5054958;28;20044;-80
2023/10/22 01:38:19;;;;;;;0.50;0.47;;;9.70;1.00;;;;;;5062161;28;20036;-80
2023/10/22 01:40:45;;;;;;;0.10;0.10;;;9.70;1.00;;;;;;5060890;28;20059;-79
2023/10/22 01:43:11;;;;;;;10.13;1.30;;;9.70;1.00;;;;;;5035676;28;20033;-79
2023/10/22 01:45:38;;;;;;;0.43;0.43;;;9.70;1.00;;;;;;5054958;28;20056;-80
2023/10/22 01:48:04;;;;;;;0.25;0.25;;;9.70;1.00;;;;;;5037155;28;20492;-80
2023/10/22 01:50:31;;;;;;;0.35;0.35;;;9.70;1.00;;;;;;5016267;28;20045;-79
2023/10/22 01:52:57;;;;;;;0.10;0.10;;;9.70;1.00;;;;;;5036540;28;20059;-81
2023/10/22 01:55:23;;;;;;;0.13;0.13;;;9.70;1.00;;;;;;5035214;28;20052;-79
2023/10/22 01:57:49;;;;;;;0.70;0.70;;;9.60;1.00;;;;;;5025901;28;20037;-79
2023/10/22 02:00:17;;;;;;;2.10;0.88;;;9.60;1.00;;;;;;5022826;28;20045;-78
2023/10/22 02:02:43;;;;;;;8.68;1.65;;;9.60;1.00;;;;;;5048205;28;20426;-84
2023/10/22 02:05:09;;;;;;;0.10;0.10;;;9.50;1.00;;;;;;5034538;28;20037;-80
2023/10/22 02:07:39;;;;;;;0.10;0.10;;;9.50;1.00;;;;;;5032956;28;20575;-80
2023/10/22 02:10:08;;;;;;;2.22;0.88;;;9.50;1.00;;;;;;5017214;28;20041;-80
2023/10/22 02:12:34;;;;;;;0.38;0.35;;;9.40;1.00;;;;;;5034965;28;20048;-80
2023/10/22 02:15:01;;;;;;;0.20;0.20;;;9.40;1.00;;;;;;5029407;28;20068;-80
2023/10/22 02:17:27;;;;;;;0.20;0.20;;;9.30;1.00;;;;;;5027935;28;20044;-80
2023/10/22 02:19:53;;;;;;;0.60;0.60;;;9.30;1.00;;;;;;5027225;28;20041;-80
2023/10/22 02:22:19;;;;;;;0.88;0.88;;;9.30;4.00;;;;;;5022126;28;20056;-79
2023/10/22 02:24:46;;;;;;;0.52;0.52;;;9.20;9.80;;;;;;5032504;28;20052;-78
2023/10/22 02:27:12;;;;;;;0.32;0.30;;;9.10;26.60;;;;;;5028545;28;20151;-79
2023/10/22 02:29:38;;;;;;;0.80;0.77;;;9.10;35.30;;;;;;5021702;28;20036;-81
2023/10/22 02:32:05;;;;;;;0.65;0.43;;;9.20;48.20;;;;;;5040361;28;20048;-80
2023/10/22 02:34:31;;;;;;;0.20;0.20;;;9.10;35.60;;;;;;5026948;28;20029;-79
2023/10/22 02:36:58;;;;;;;0.10;0.10;;;9.10;46.50;;;;;;5045619;28;20037;-82
2023/10/22 02:39:25;;;;;;;3.50;0.70;;;9.10;57.80;;;;;;5044331;28;20386;-79
2023/10/22 02:41:51;;;;;;;0.28;0.28;;;9.00;72.20;;;;;;5025467;28;20040;-80
2023/10/22 02:44:17;;;;;;;0.10;0.10;;;8.90;77.10;;;;;;5056449;28;20040;-82
2023/10/22 02:46:43;;;;;;;0.60;0.50;;;8.90;99.30;;;;;;5061827;28;20036;-79
2023/10/22 02:49:10;;;;;;;0.10;0.10;;;8.80;99.90;;;;;;5029185;28;20036;-80
2023/10/22 02:51:36;;;;;;;0.20;0.20;;;8.80;99.90;;;;;;5033986;28;20402;-80
2023/10/22 02:54:03;;;;;;;0.60;0.40;;;8.80;99.90;;;;;;5022671;28;20041;-80
2023/10/22 02:56:29;;;;;;;0.03;0.03;;;8.80;99.90;;;;;;5030279;28;20112;-80
2023/10/22 02:58:56;;;;;;;0.45;0.45;;;8.70;99.90;;;;;;5055239;28;20037;-81
2023/10/22 03:01:23;;;;;;;1.00;0.85;;;8.80;99.90;;;;;;5025145;28;20406;-81
2023/10/22 03:03:49;;;;;;;0.20;0.20;;;8.80;99.90;;;;;;5040417;28;20045;-82
2023/10/22 03:06:16;;;;;;;0.32;0.32;;;8.90;99.90;;;;;;5024336;28;20042;-82
2023/10/22 03:08:42;;;;;;;0.20;0.20;;;8.90;99.90;;;;;;5035163;28;20037;-81
2023/10/22 03:11:16;;;;;;;0.15;0.15;;;9.00;99.90;;;;;;5015162;28;20053;-81
2023/10/22 03:13:43;;;;;;;1.17;0.43;;;9.00;99.90;;;;;;5012444;28;20045;-82
2023/10/22 03:16:17;;;;;;;0.80;0.52;;;9.00;99.90;;;;;;5029763;28;20048;-81
2023/10/22 03:18:45;;;;;;;0.30;0.30;;;9.00;99.90;;;;;;5003276;28;20037;-82
2023/10/22 03:21:14;;;;;;;0.13;0.13;;;9.10;99.90;;;;;;5045292;28;20042;-81
2023/10/22 03:23:41;;;;;;;1.55;0.90;;;9.10;99.90;;;;;;5017915;28;20431;-81
2023/10/22 03:26:18;;;;;;;0.20;0.10;;;9.10;99.90;;;;;;5033037;28;20071;-80
2023/10/22 03:28:45;;;;;;;0.20;0.20;;;9.20;99.40;;;;;;5043120;28;20052;-81
2023/10/22 03:31:12;;;;;;;0.20;0.20;;;9.20;94.90;;;;;;5012847;28;20045;-81
2023/10/22 03:33:39;;;;;;;0.32;0.25;;;9.20;93.90;;;;;;5016808;28;20037;-81
2023/10/22 03:36:05;;;;;;;1.17;0.85;;;9.20;91.50;;;;;;5039653;28;20506;-81
2023/10/22 03:38:32;;;;;;;0.22;0.22;;;9.10;95.70;;;;;;5036034;28;20056;-79
2023/10/22 03:41:04;;;;;;;0.35;0.30;;;9.10;97.90;;;;;;5026624;28;20076;-82
2023/10/22 03:43:32;;;;;;;0.40;0.38;;;9.10;99.90;;;;;;5019199;28;20478;-80
2023/10/22 03:45:59;;;;;;;0.20;0.20;;;9.00;99.90;;;;;;5039935;28;20041;-80
2023/10/22 03:48:29;;;;;;;0.10;0.10;;;9.00;99.90;;;;;;5037287;28;20462;-81
2023/10/22 03:50:55;;;;;;;0.10;0.10;;;9.00;99.90;;;;;;5013381;28;20479;-80
2023/10/22 03:53:21;;;;;;;0.40;0.40;;;9.10;99.90;;;;;;5021760;28;20053;-79
2023/10/22 03:55:48;;;;;;;0.30;0.30;;;9.10;95.90;;;;;;5034051;28;20060;-80
2023/10/22 03:58:14;;;;;;;0.17;0.17;;;9.10;99.70;;;;;;5029851;28;20041;-80
2023/10/22 04:00:41;;;;;;;0.20;0.20;;;9.10;99.40;;;;;;5017110;28;20475;-80
2023/10/22 04:03:07;;;;;;;0.17;0.17;;;9.10;94.30;;;;;;5026648;28;20045;-80
2023/10/22 04:05:33;;;;;;;0.38;0.38;;;9.10;93.10;;;;;;5029429;28;20049;-80
2023/10/22 04:07:59;;;;;;;0.10;0.10;;;9.10;93.50;;;;;;5033854;28;20512;-80
2023/10/22 04:10:26;;;;;;;0.10;0.10;;;9.10;93.10;;;;;;5015132;28;20037;-80
2023/10/22 04:12:52;;;;;;;0.50;0.50;;;9.10;87.10;;;;;;5027277;28;20044;-80
2023/10/22 04:15:18;;;;;;;0.10;0.10;;;9.10;89.90;;;;;;5018282;28;20380;-81
2023/10/22 04:17:46;;;;;;;0.15;0.15;;;9.10;85.80;;;;;;5020815;28;20040;-81
2023/10/22 04:20:13;;;;;;;0.28;0.28;;;9.10;88.70;;;;;;5030739;28;20041;-81
2023/10/22 04:22:42;;;;;;;0.10;0.10;;;9.10;91.80;;;;;;5044708;28;20872;-81
2023/10/22 04:25:09;;;;;;;0.10;0.10;;;9.10;96.90;;;;;;5031604;28;20034;-81
2023/10/22 04:27:35;;;;;;;0.30;0.30;;;9.10;99.90;;;;;;5041771;28;20056;-80
2023/10/22 04:30:04;;;;;;;0.10;0.10;;;9.10;99.90;;;;;;5038132;28;20386;-81
2023/10/22 04:32:34;;;;;;;0.10;0.10;;;9.00;99.90;;;;;;5032332;28;20045;-80
2023/10/22 04:35:00;;;;;;;0.10;0.10;;;9.00;99.90;;;;;;5031801;28;20139;-80
2023/10/22 04:37:27;;;;;;;0.30;0.30;;;9.00;99.90;;;;;;5041099;28;20042;-80
2023/10/22 04:39:56;;;;;;;0.32;0.32;;;9.00;99.90;;;;;;5036957;28;20032;-80
2023/10/22 04:42:23;;;;;;;0.50;0.40;;;9.10;99.90;;;;;;5041509;28;20050;-80
2023/10/22 04:44:49;;;;;;;0.10;0.10;;;9.10;99.90;;;;;;5014560;28;20041;-81
2023/10/22 04:47:15;;;;;;;0.10;0.10;;;9.20;97.00;;;;;;5015100;28;20415;-81
2023/10/22 04:49:44;;;;;;;0.20;0.20;;;9.20;80.30;;;;;;5052085;28;20048;-79
2023/10/22 04:52:17;;;;;;;0.17;0.17;;;9.20;75.30;;;;;;5040678;28;20045;-81
2023/10/22 04:54:43;;;;;;;0.82;0.82;;;9.20;70.20;;;;;;5032675;28;20034;-80
2023/10/22 04:57:10;;;;;;;0.10;0.10;;;9.30;65.80;;;;;;5034004;28;20042;-80
2023/10/22 04:59:36;;;;;;;0.40;0.40;;;9.20;67.20;;;;;;5027041;28;20033;-80
2023/10/22 05:02:02;;;;;;;0.35;0.30;;;9.20;84.00;;;;;;5034848;28;20055;-80
2023/10/22 05:04:28;;;;;;;1.35;0.73;;;9.30;70.30;;;;;;5027452;28;20045;-80
2023/10/22 05:06:55;;;;;;;0.10;0.10;;;9.30;63.40;;;;;;5016625;28;20045;-80
2023/10/22 05:09:21;;;;;;;0.10;0.10;;;9.30;53.00;;;;;;5031860;28;20494;-80
2023/10/22 05:11:47;;;;;;;0.10;0.10;;;9.30;68.20;;;;;;5037355;28;20061;-81
2023/10/22 05:14:13;;;;;;;0.20;0.20;;;9.30;57.10;;;;;;5017623;28;20052;-81
2023/10/22 05:16:39;;;;;;;0.10;0.10;;;9.30;44.70;;;;;;5045930;28;20040;-79
2023/10/22 05:19:05;;;;;;;0.98;0.90;;;9.40;33.30;;;;;;5032052;28;20049;-80
2023/10/22 05:21:32;;;;;;;0.10;0.10;;;9.50;18.20;;;;;;5020218;28;20069;-80
2023/10/22 05:23:58;;;;;;;0.25;0.25;;;9.60;1.00;;;;;;5035318;28;20045;-80
2023/10/22 05:26:24;;;;;;;0.43;0.43;;;9.70;1.00;;;;;;5041858;28;20040;-80
2023/10/22 05:28:50;;;;;;;0.10;0.10;;;9.80;1.00;;;;;;5040719;28;20791;-80
2023/10/22 05:31:18;;;;;;;1.10;1.00;;;9.90;1.00;;;;;;5015402;28;20052;-80
2023/10/22 05:33:45;;;;;;;0.10;0.10;;;9.90;1.00;;;;;;5038899;28;20493;-80
2023/10/22 05:36:15;;;;;;;0.10;0.10;;;10.00;1.00;;;;;;5038262;28;20033;-80
2023/10/22 05:38:42;;;;;;;0.08;0.08;;;10.10;1.00;;;;;;5009267;28;20046;-80
2023/10/22 05:41:15;;;;;;;0.25;0.25;;;10.10;1.00;;;;;;5040460;28;20056;-80
2023/10/22 05:43:42;;;;;;;6.95;0.65;;;10.10;1.00;;;;;;5032009;28;20045;-79
2023/10/22 05:46:09;;;;;;;0.63;0.30;;;10.10;1.00;;;;;;5032830;28;20047;-82
2023/10/22 05:48:35;;;;;;;2.17;0.73;;;10.10;1.00;;;;;;5015552;28;20048;-81
2023/10/22 05:51:02;;;;;;;0.00;0.00;;;10.10;1.00;;;;;;5036592;28;20037;-81
2023/10/22 05:53:28;;;;;;;0.95;0.90;;;10.10;1.00;;;;;;5026668;28;20187;-81
2023/10/22 05:55:57;;;;;;;0.25;0.25;;;10.10;1.00;;;;;;5016524;28;20428;-80
2023/10/22 05:58:26;;;;;;;0.17;0.17;;;10.10;1.00;;;;;;5033391;28;20061;-80
2023/10/22 06:00:53;;;;;;;0.10;0.10;;;10.00;1.00;;;;;;5028127;28;20052;-81
2023/10/22 06:03:19;;;;;;;0.20;0.20;;;10.10;1.00;;;;;;5027794;28;20042;-80
2023/10/22 06:05:46;;;;;;;0.40;0.40;;;10.20;1.00;;;;;;5036182;28;20038;-80
2023/10/22 06:08:12;;;;;;;1.55;0.52;;;10.20;1.00;;;;;;5031916;28;20060;-83
2023/10/22 06:10:46;;;;;;;0.10;0.10;;;10.30;1.00;;;;;;5020569;28;20038;-80
2023/10/22 06:13:12;;;;;;;0.20;0.20;;;10.30;1.00;;;;;;5043360;28;20067;-82
2023/10/22 06:15:42;;;;;;;1.65;0.95;;;10.30;1.00;;;;;;5035818;28;20033;-79
2023/10/22 06:18:08;;;;;;;0.17;0.17;;;10.30;1.00;;;;;;5011783;28;20049;-82
2023/10/22 06:20:35;;;;;;;0.10;0.10;;;10.40;1.00;;;;;;5036480;28;20041;-80
2023/10/22 06:23:03;;;;;;;5.78;1.02;;;10.40;1.00;;;;;;5028446;28;20053;-78
2023/10/22 06:25:31;;;;;;;2.35;0.30;;;10.40;1.00;;;;;;5029804;28;20044;-79
2023/10/22 06:27:59;;;;;;;0.10;0.10;;;10.40;1.00;;;;;;5053547;28;20040;-79
2023/10/22 06:30:26;;;;;;;0.95;0.63;;;10.40;1.00;;;;;;5032634;28;20048;-79
2023/10/22 06:32:53;;;;;;;0.25;0.25;;;10.40;1.00;;;;;;5031257;28;20040;-79
2023/10/22 06:35:20;;;;;;;0.20;0.20;;;10.40;1.00;;;;;;5043104;28;20029;-79
2023/10/22 06:37:53;;;;;;;0.60;0.52;;;10.40;1.00;;;;;;5037524;28;20044;-80
2023/10/22 06:40:20;;;;;;;0.77;0.73;;;10.50;1.00;;;;;;5049462;28;20044;-79
2023/10/22 06:42:48;;;;;;;0.98;0.82;;;10.50;1.00;;;;;;5014642;28;20094;-79
2023/10/22 06:45:17;;;;;;;0.93;0.75;;;10.50;1.00;;;;;;5030358;28;20045;-80
2023/10/22 06:47:43;;;;;;;0.20;0.20;;;10.40;1.00;;;;;;5016850;28;20052;-80
2023/10/22 06:50:13;;;;;;;0.10;0.10;;;10.40;1.00;;;;;;5029499;28;20062;-82
2023/10/22 06:52:43;;;;;;;0.30;0.30;;;10.40;1.00;;;;;;5031658;28;20049;-76
2023/10/22 06:55:10;;;;;;;1.23;0.63;;;10.50;1.00;;;;;;5033411;28;20044;-78
2023/10/22 06:57:36;;;;;;;0.10;0.10;;;10.60;1.00;;;;;;5028707;28;20272;-78
2023/10/22 07:00:03;;;;;;;0.10;0.10;;;10.60;1.00;;;;;;5021997;28;20431;-79
2023/10/22 07:02:29;;;;;;;0.10;0.10;;;10.60;1.00;;;;;;5025753;28;20255;-79
2023/10/22 07:04:57;;;;;;;0.10;0.10;;;10.70;99.90;;;;;;5030951;28;20041;-78
2023/10/22 07:07:25;;;;;;;0.10;0.10;;;10.70;99.90;;;;;;5030835;28;20029;-77
2023/10/22 07:09:51;;;;;;;0.10;0.10;;;10.80;99.90;;;;;;5015213;28;20045;-78
2023/10/22 07:12:17;;;;;;;1.00;1.00;;;10.80;99.90;;;;;;5031404;28;20041;-78
2023/10/22 07:14:43;;;;;;;0.20;0.20;;;11.00;99.90;;;;;;5037562;28;20068;-78
2023/10/22 07:17:10;;;;;;;0.45;0.45;;;11.10;99.90;;;;;;5038952;28;20029;-84
2023/10/22 07:19:36;;;;;;;0.35;0.35;;;11.40;99.90;;;;;;5042941;28;20037;-80
2023/10/22 07:22:02;;;;;;;0.10;0.10;;;11.50;99.90;;;;;;5036498;28;20041;-80
2023/10/22 07:24:29;;;;;;;0.22;0.22;;;11.80;99.90;;;;;;5026661;28;20048;-78
2023/10/22 07:26:55;;;;;;;0.10;0.10;;;12.00;99.90;;;;;;5015064;28;20041;-79
2023/10/22 07:29:21;;;;;;;0.10;0.10;;;12.10;99.90;;;;;;5010379;28;20376;-78
2023/10/22 07:31:48;;;;;;;1.55;0.47;;;12.20;99.90;;;;;;5036509;28;20044;-78
2023/10/22 07:34:15;;;;;;;0.45;0.45;;;12.40;99.90;;;;;;5015647;28;20053;-78
2023/10/22 07:36:41;;;;;;;0.20;0.17;;;12.90;99.90;;;;;;5026561;28;20045;-78
2023/10/22 07:39:07;;;;;;;0.35;0.25;;;13.10;99.90;;;;;;5025100;28;20057;-78
2023/10/22 07:41:34;;;;;;;0.20;0.20;;;13.10;99.90;;;;;;5029575;28;20037;-76
2023/10/22 07:44:00;;;;;;;1.08;0.77;;;13.20;90.50;;;;;;5027880;28;20391;-78
2023/10/22 07:46:26;;;;;;;0.20;0.20;;;13.10;94.40;;;;;;5031607;28;20040;-79
2023/10/22 07:48:52;;;;;;;0.03;0.03;;;13.20;97.20;;;;;;5026769;28;20076;-78
2023/10/22 07:51:19;;;;;;;0.10;0.10;;;13.20;97.90;;;;;;5029646;28;20045;-78
2023/10/22 07:53:46;;;;;;;0.65;0.57;;;13.30;92.20;;;;;;5048113;28;20386;-78
2023/10/22 07:56:15;;;;;;;0.10;0.10;;;13.20;69.90;;;;;;5035840;28;20041;-80
2023/10/22 07:58:41;;;;;;;0.10;0.10;;;13.10;83.20;;;;;;5036471;28;20048;-79
2023/10/22 08:01:08;;;;;;;0.00;0.00;;;13.30;83.20;;;;;;5046548;28;20045;-78
2023/10/22 08:03:34;;;;;;;0.30;0.10;;;13.50;79.90;;;;;;5036885;28;20041;-79
2023/10/22 08:06:03;;;;;;;0.20;0.20;;;13.80;30.30;;;;;;5035570;28;20041;-79
2023/10/22 08:08:29;;;;;;;0.20;0.15;;;14.00;35.50;;;;;;5050908;28;20033;-78
2023/10/22 08:10:57;;;;;;;1.92;0.17;;;14.30;1.90;;;;;;5033828;28;20037;-78
2023/10/22 08:13:24;;;;;;;0.00;0.00;;;14.50;1.00;;;;;;5049361;28;20037;-78
2023/10/22 08:15:52;;;;;;;0.10;0.10;;;14.40;1.00;;;;;;5037519;28;20044;-79
2023/10/22 08:18:19;;;;;;;0.15;0.15;;;14.30;1.00;;;;;;5050561;28;20039;-78
2023/10/22 08:20:45;;;;;;;0.10;0.10;;;14.30;1.00;;;;;;5043087;28;20046;-79
2023/10/22 08:23:12;;;;;;;0.30;0.30;;;14.50;1.00;;;;;;5033293;28;20128;-77
2023/10/22 08:25:38;;;;;;;0.47;0.20;;;14.40;1.00;;;;;;5038975;28;20037;-79
2023/10/22 08:28:05;;;;;;;0.15;0.15;;;14.40;1.00;;;;;;5036581;28;20056;-82
2023/10/22 08:30:31;;;;;;;0.10;0.10;;;14.40;1.00;;;;;;5029079;28;20038;-81
2023/10/22 08:32:57;;;;;;;7.10;0.68;;;14.20;1.00;;;;;;5036735;28;20032;-80
2023/10/22 08:35:24;;;;;;;0.20;0.20;;;14.20;1.00;;;;;;5053265;28;20044;-79
2023/10/22 08:37:50;;;;;;;0.22;0.08;;;14.20;1.00;;;;;;5030800;28;20462;-79
2023/10/22 08:40:16;;;;;;;0.10;0.10;;;14.20;1.00;;;;;;5018338;28;20041;-79
2023/10/22 08:42:44;;;;;;;0.47;0.30;;;14.20;1.00;;;;;;5041909;28;20438;-79
2023/10/22 08:45:10;;;;;;;0.32;0.32;;;14.20;1.00;;;;;;5034328;28;20363;-79
2023/10/22 08:47:37;;;;;;;0.00;0.00;;;14.30;1.00;;;;;;5039331;28;20512;-79
2023/10/22 08:50:03;;;;;;;0.20;0.20;;;14.30;1.00;;;;;;5055279;28;20418;-80
2023/10/22 08:52:30;;;;;;;0.10;0.10;;;14.30;1.00;;;;;;5021241;28;20053;-78
2023/10/22 08:54:56;;;;;;;0.20;0.20;;;14.40;1.00;;;;;;5044374;28;20034;-80
2023/10/22 08:57:24;;;;;;;0.30;0.20;;;14.40;1.00;;;;;;5052753;28;20490;-80
2023/10/22 08:59:51;;;;;;;5.90;0.45;;;14.40;1.00;;;;;;5054086;28;20042;-80
2023/10/22 09:02:21;;;;;;;0.00;0.00;;;14.30;1.00;;;;;;5048877;28;20036;-79
2023/10/22 09:04:47;;;;;;;0.20;0.20;;;14.20;1.00;;;;;;5057312;28;20036;-79
2023/10/22 09:07:14;;;;;;;4.10;0.82;;;14.20;1.00;;;;;;5038687;28;20044;-80
2023/10/22 09:09:40;;;;;;;0.00;0.00;;;14.30;1.00;;;;;;5053278;28;20048;-79
2023/10/22 09:12:10;;;;;;;0.63;0.30;;;14.40;1.00;;;;;;5057167;28;20419;-80
2023/10/22 09:14:37;;;;;;;0.03;0.03;;;14.50;1.00;;;;;;5056666;28;20055;-80
2023/10/22 09:17:17;;;;;;;0.13;0.13;;;14.50;1.00;;;;;;5054158;28;20060;-79
2023/10/22 09:19:47;;;;;;;1.15;0.80;;;14.50;1.00;;;;;;5040362;28;20041;-81
2023/10/22 09:22:25;;;;;;;0.63;0.32;;;14.50;1.00;;;;;;5031062;28;20049;-83
2023/10/22 09:24:56;;;;;;;0.43;0.43;;;14.70;1.00;;;;;;5034924;28;20479;-80
2023/10/22 09:27:27;;;;;;;0.28;0.28;;;15.00;1.00;;;;;;5034812;28;20474;-81
2023/10/22 09:29:54;;;;;;;;;;;15.30;1.00;;;;;;5061488;28;20029;-77
2023/10/22 09:32:20;;;;;;;0.15;0.15;;;15.50;1.00;;;;;;5038137;28;19901;-78
2023/10/22 09:34:47;;;;;;;1.00;0.30;;;15.60;1.00;;;;;;5048835;28;20044;-77
2023/10/22 09:37:13;;;;;;;0.10;0.10;;;15.40;1.00;;;;;;5047082;28;20048;-76
2023/10/22 09:39:43;;;;;;;1.85;1.05;;;15.30;1.00;;;;;;5052315;28;20033;-85
2023/10/22 09:42:11;;;;;;;6.03;1.00;;;15.40;1.00;;;;;;5031621;28;20562;-85
2023/10/22 09:44:39;;;;;;;17.92;0.63;;;15.40;1.00;;;;;;5040990;28;20232;-86
2023/10/22 09:47:06;;;;;;;0.25;0.20;;;15.50;1.00;;;;;;5028803;28;20034;-84
2023/10/22 09:49:38;;;;;;;0.15;0.13;;;15.30;1.00;;;;;;5045715;28;20041;-86
2023/10/22 09:52:09;;;;;;;1.55;0.47;;;15.20;1.00;;;;;;5038503;28;20397;-78
2023/10/22 09:54:39;;;;;;;0.30;0.20;;;15.20;1.00;;;;;;5059962;28;20032;-82
2023/10/22 09:57:17;;;;;;;5.00;1.35;;;15.30;1.00;;;;;;5053660;28;20056;-81
2023/10/22 09:59:44;;;;;;;0.55;0.55;;;15.40;1.00;;;;;;5033258;28;20364;-81
2023/10/22 10:02:20;;;;;;;0.30;0.30;;;15.30;1.00;;;;;;5037615;28;20060;-81
2023/10/22 10:04:49;;;;;;;0.47;0.20;;;15.40;1.00;;;;;;5035731;28;20040;-80
2023/10/22 10:07:17;;;;;;;1.27;0.63;;;15.40;1.00;;;;;;5033185;28;20041;-83
2023/10/22 10:09:45;;;;;;;0.65;0.45;;;15.40;1.00;;;;;;5038771;28;20047;-81
2023/10/22 10:12:14;;;;;;;1.00;0.40;;;15.40;1.00;;;;;;5042233;28;20032;-82
2023/10/22 10:14:49;;;;;;;0.80;0.80;;;15.40;1.00;;;;;;5056215;28;20047;-82
2023/10/22 10:17:17;;;;;;;0.17;0.17;;;15.40;1.00;;;;;;5044008;28;20052;-81
2023/10/22 10:19:44;;;;;;;1.77;0.43;;;15.40;1.00;;;;;;5057771;28;20457;-83
2023/10/22 10:22:40;;;;;;;12.30;1.00;;;15.50;1.00;;;;;;5038220;28;20049;-80
2023/10/22 10:25:25;;;;;;;0.10;0.10;;;15.50;1.00;;;;;;5062414;28;20036;-80
2023/10/22 10:27:53;;;;;;;0.22;0.22;;;15.50;1.00;;;;;;5056984;28;20037;-80
2023/10/22 10:30:23;;;;;;;4.78;0.85;;;15.50;1.00;;;;;;5033653;28;20064;-82
2023/10/22 10:32:50;;;;;;;0.95;0.90;;;15.60;1.00;;;;;;5035680;28;20032;-82
2023/10/22 10:35:18;;;;;;;0.30;0.30;;;15.60;1.00;;;;;;5048235;28;20043;-80
2023/10/22 10:38:13;;;;;;;0.20;0.20;;;15.70;1.00;;;;;;5050048;28;20033;-84
2023/10/22 10:40:44;;;;;;;0.60;0.50;;;15.50;1.00;;;;;;5029810;28;20045;-81
2023/10/22 10:43:10;;;;;;;0.10;0.10;;;15.60;1.00;;;;;;5036585;28;20049;-81
2023/10/22 10:45:43;;;;;;;6.72;1.23;;;15.60;1.00;;;;;;5044910;28;20037;-83
2023/10/22 10:48:41;;;;;;;0.28;0.28;;;15.60;1.00;;;;;;5039147;28;20029;-81
2023/10/22 10:51:18;;;;;;;0.05;0.05;;;15.60;1.00;;;;;;5046733;28;20397;-77
2023/10/22 10:54:03;;;;;;;0.13;0.13;;;15.70;1.00;;;;;;5043447;28;20052;-77
2023/10/22 10:56:52;;;;;;;1.17;0.52;;;15.80;1.00;;;;;;5049877;28;20040;-80
2023/10/22 10:59:30;;;;;;;0.20;0.20;;;16.00;1.00;;;;;;5035619;28;20025;-79
2023/10/22 11:02:01;;;;;;;0.60;0.60;;;16.10;1.00;;;;;;5047344;28;20037;-79
2023/10/22 11:04:33;;;;;;;0.20;0.20;;;16.10;1.00;;;;;;5051278;28;20036;-77
2023/10/22 11:06:59;;;;;;;0.10;0.10;;;16.00;1.00;;;;;;5053011;28;20037;-79
2023/10/22 11:09:26;;;;;;;0.45;0.32;;;16.00;99.90;;;;;;5034448;28;20549;-79
2023/10/22 11:12:03;;;;;;;1.25;0.82;;;16.20;99.90;;;;;;5042582;28;20037;-79
2023/10/22 11:14:36;;;;;;;0.40;0.40;;;16.60;99.90;;;;;;5017154;28;20434;-78
2023/10/22 11:17:04;;;;;;;3.92;0.63;;;16.90;99.90;;;;;;5061712;28;20029;-77
2023/10/22 11:19:31;;;;;;;7.68;0.63;;;16.70;99.90;;;;;;5046275;28;20059;-78
2023/10/22 11:21:59;;;;;;;0.10;0.10;;;16.60;99.90;;;;;;5046173;28;20036;-78
2023/10/22 11:24:34;;;;;;;0.10;0.10;;;16.90;99.90;;;;;;5046010;28;20041;-77
2023/10/22 11:27:02;;;;;;;0.10;0.10;;;16.90;99.90;;;;;;5050348;28;20504;-79
2023/10/22 11:29:29;;;;;;;1.33;0.70;;;16.80;99.90;;;;;;5036966;28;20056;-79
2023/10/22 11:31:57;;;;;;;0.28;0.28;;;16.80;99.90;;;;;;5050301;28;20033;-78
2023/10/22 11:34:24;;;;;;;0.30;0.30;;;16.70;99.90;;;;;;5042140;28;20037;-80
2023/10/22 11:37:00;;;;;;;0.10;0.10;;;16.50;99.90;;;;;;5029363;28;20045;-80
2023/10/22 11:39:36;;;;;;;0.25;0.17;;;16.40;99.90;;;;;;5037531;28;20036;-80
2023/10/22 11:42:07;;;;;;;0.95;0.32;;;16.40;99.90;;;;;;5053149;28;20029;-79
2023/10/22 11:44:34;;;;;;;0.65;0.20;;;16.50;99.90;;;;;;5048634;28;20034;-79
2023/10/22 11:47:02;;;;;;;0.10;0.10;;;16.50;99.90;;;;;;5034620;28;20552;-79
2023/10/22 11:49:29;;;;;;;0.05;0.05;;;16.40;99.90;;;;;;5026810;28;20037;-79
2023/10/22 11:51:55;;;;;;;1.63;0.43;;;16.50;99.90;;;;;;5055484;28;20052;-79
2023/10/22 11:54:41;;;;;;;0.20;0.20;;;16.80;99.90;;;;;;5036387;28;20036;-79
2023/10/22 11:57:08;;;;;;;0.22;0.22;;;17.10;99.90;;;;;;5031088;28;20056;-79
2023/10/22 11:59:34;;;;;;;1.17;0.90;;;17.50;99.90;;;;;;5046295;28;20028;-80
2023/10/22 12:02:00;;;;;;;0.22;0.22;;;17.60;99.90;;;;;;5020680;28;20122;-75
2023/10/22 12:04:26;;;;;;;0.10;0.10;;;17.50;99.90;;;;;;5047148;28;20052;-80
2023/10/22 12:06:52;;;;;;;1.13;0.68;;;17.30;99.90;;;;;;5044054;28;20045;-79
2023/10/22 12:09:19;;;;;;;0.10;0.10;;;17.30;99.90;;;;;;5038042;28;20032;-81
2023/10/22 12:11:45;;;;;;;0.10;0.10;;;17.40;99.90;;;;;;5038477;28;20477;-88
2023/10/22 12:14:11;;;;;;;0.10;0.10;;;17.20;99.90;;;;;;5052709;28;20041;-85
2023/10/22 12:16:37;;;;;;;0.20;0.20;;;16.90;99.90;;;;;;5042340;28;20036;-83
2023/10/22 12:19:03;;;;;;;0.40;0.38;;;16.90;99.90;;;;;;5056153;28;20054;-82
2023/10/22 12:21:30;;;;;;;0.40;0.20;;;16.90;99.90;;;;;;5066156;28;20033;-82
2023/10/22 12:23:56;;;;;;;0.75;0.63;;;17.00;99.90;;;;;;5056967;28;20110;-83
2023/10/22 12:26:22;;;;;;;0.13;0.13;;;17.00;99.90;;;;;;5055982;28;20035;-82
2023/10/22 12:28:48;;;;;;;0.40;0.30;;;17.10;99.90;;;;;;5054167;28;20100;-81
2023/10/22 12:31:15;;;;;;;0.13;0.13;;;17.30;99.90;;;;;;5016792;28;20033;-83
2023/10/22 12:33:42;;;;;;;0.30;0.30;;;17.50;99.90;;;;;;5034445;28;20037;-81
2023/10/22 12:36:08;;;;;;;1.58;1.33;;;17.50;99.90;;;;;;5044815;28;20048;-81
2023/10/22 12:38:34;;;;;;;0.10;0.10;;;17.60;99.90;;;;;;5031918;28;20030;-84
2023/10/22 12:41:01;;;;;;;0.57;0.57;;;17.80;99.90;;;;;;5032888;28;20044;-84
2023/10/22 12:43:27;;;;;;;0.55;0.55;;;17.80;90.60;;;;;;5060054;28;20040;-82
2023/10/22 12:45:53;;;;;;;0.20;0.20;;;17.80;94.50;;;;;;5033598;28;20038;-81
2023/10/22 12:48:20;;;;;;;0.10;0.10;;;17.90;78.30;;;;;;5056928;28;20032;-83
2023/10/22 12:50:48;;;;;;;6.43;0.85;;;18.00;50.00;;;;;;5033214;28;20041;-82
2023/10/22 12:53:14;;;;;;;2.47;1.27;;;17.80;45.00;;;;;;5026528;28;20056;-82
2023/10/22 12:55:41;;;;;;;0.38;0.38;;;17.40;91.10;;;;;;5055628;28;20025;-83
2023/10/22 12:58:07;;;;;;;1.00;0.77;;;17.00;99.90;;;;;;5048662;28;20025;-85